Time;durP1;ratioP1;P1;durP2;ratioP2;P2;SDS_P1;SDS_P2;PMS_P1;PMS_P2;Temp;Humidity;BMP_temperature;BMP_pressure;BME280_temperature;BME280_humidity;BME280_pressure;Samples;Min_cycle;Max_cycle;Signal;HPM_P1;HPM_P2
2023/09/16 00:01:36;;;;;;;17.33;14.57;;;;;;;-146.27;77.99;81930.22;5051168;28;20056;-66
2023/09/16 00:04:01;;;;;;;20.20;16.33;;;;;;;-146.27;78.03;81954.31;5050733;28;20025;-66
2023/09/16 00:06:27;;;;;;;25.02;17.25;;;;;;;-146.27;77.92;81922.19;5050686;28;20036;-66
2023/09/16 00:08:52;;;;;;;22.80;16.92;;;;;;;-146.27;77.93;81938.25;5050220;28;20025;-66
2023/09/16 00:11:18;;;;;;;23.75;17.45;;;;;;;-146.27;77.81;81926.22;5050887;28;20061;-66
2023/09/16 00:13:43;;;;;;;23.33;18.13;;;;;;;-146.27;78.21;81906.13;5050635;28;20025;-66
2023/09/16 00:16:11;;;;;;;20.98;16.73;;;;;;;-146.27;76.82;81876.00;5050402;28;20493;-66
2023/09/16 00:18:38;;;;;;;22.75;17.60;;;;;;;-146.27;76.91;81922.19;5050938;28;20469;-66
2023/09/16 00:21:03;;;;;;;21.05;16.50;;;;;;;-146.27;77.21;81942.28;5050654;28;20041;-64
2023/09/16 00:23:31;;;;;;;23.42;17.20;;;;;;;-146.27;77.31;81946.28;5050907;28;20051;-65
2023/09/16 00:25:57;;;;;;;24.75;18.15;;;;;;;-146.27;77.21;81960.34;5050892;28;20063;-65
2023/09/16 00:28:25;;;;;;;25.38;18.70;;;;;;;-146.27;77.45;81972.41;5050875;28;20493;-66
2023/09/16 00:30:51;;;;;;;26.38;18.45;;;;;;;-146.27;77.64;81932.22;5050333;28;20489;-64
2023/09/16 00:33:16;;;;;;;25.83;18.95;;;;;;;-146.27;77.59;81926.22;5050204;28;20053;-65
2023/09/16 00:35:42;;;;;;;27.98;18.77;;;;;;;-146.27;76.77;81934.25;5050153;28;20247;-66
2023/09/16 00:38:08;;;;;;;30.30;18.35;;;;;;;-146.27;77.52;81940.25;5050450;28;20029;-64
2023/09/16 00:40:34;;;;;;;26.42;19.00;;;;;;;-146.27;77.45;81912.16;5050246;28;20075;-64
2023/09/16 00:43:00;;;;;;;27.42;19.73;;;;;;;-146.27;77.05;81932.22;5050202;28;20024;-66
2023/09/16 00:45:25;;;;;;;24.27;18.48;;;;;;;-146.27;77.06;81906.13;5050169;28;20021;-66
2023/09/16 00:47:51;;;;;;;25.85;18.20;;;;;;;-146.27;77.14;81930.22;5050188;28;20029;-66
2023/09/16 00:50:17;;;;;;;27.83;18.92;;;;;;;-146.27;77.01;81886.03;5050161;28;20492;-65
2023/09/16 00:52:49;;;;;;;26.02;17.90;;;;;;;-146.27;76.74;81851.88;5050000;28;20139;-66
2023/09/16 00:55:15;;;;;;;23.17;18.58;;;;;;;-146.27;76.69;81886.03;5050236;28;20108;-66
2023/09/16 00:57:46;;;;;;;26.35;18.05;;;;;;;-146.27;76.73;81898.09;5048697;28;20063;-65
2023/09/16 01:00:12;;;;;;;25.23;18.77;;;;;;;-146.27;77.06;81894.06;5049877;28;20040;-65
2023/09/16 01:02:37;;;;;;;25.13;17.77;;;;;;;-146.27;76.83;81857.91;5049839;28;20025;-65
2023/09/16 01:05:14;;;;;;;23.40;18.88;;;;;;;-146.27;77.38;81865.94;5050225;28;20078;-65
2023/09/16 01:07:41;;;;;;;26.15;18.58;;;;;;;-146.27;76.98;81841.84;5049761;28;20025;-66
2023/09/16 01:10:07;;;;;;;25.27;18.23;;;;;;;-146.27;76.99;81845.88;5049587;28;20020;-64
2023/09/16 01:12:33;;;;;;;22.60;17.52;;;;;;;-146.27;77.28;81878.00;5049807;28;20029;-64
2023/09/16 01:14:58;;;;;;;26.17;19.38;;;;;;;-146.27;78.35;81845.88;5049774;28;20044;-66
2023/09/16 01:17:32;;;;;;;23.58;18.85;;;;;;;-146.27;77.95;81869.97;5049797;28;20036;-65
2023/09/16 01:20:13;;;;;;;26.15;19.13;;;;;;;-146.27;78.41;81867.97;5049967;28;20108;-65
2023/09/16 01:22:44;;;;;;;25.33;18.80;;;;;;;-146.27;78.10;81829.78;5049696;28;20040;-66
2023/09/16 01:25:10;;;;;;;24.00;18.15;;;;;;;-146.27;78.33;81851.88;5049701;28;20021;-66
2023/09/16 01:27:37;;;;;;;26.90;19.33;;;;;;;-146.27;77.63;81859.94;5049765;28;20033;-66
2023/09/16 01:30:08;;;;;;;24.52;18.45;;;;;;;-146.27;78.08;81849.88;5050152;28;20049;-65
2023/09/16 01:32:53;;;;;;;27.45;19.67;;;;;;;-146.27;77.16;81845.88;5052135;28;20024;-66
2023/09/16 01:35:21;;;;;;;30.35;19.40;;;;;;;-146.27;76.86;81884.03;5053840;28;20515;-66
2023/09/16 01:37:49;;;;;;;27.58;18.00;;;;;;;-146.27;77.21;81888.03;5053933;28;20094;-66
2023/09/16 01:40:15;;;;;;;29.17;20.05;;;;;;;-146.27;77.44;81898.09;5053744;28;20021;-65
2023/09/16 01:42:41;;;;;;;25.23;20.30;;;;;;;-146.27;77.18;81855.91;5053813;28;20546;-66
2023/09/16 01:45:07;;;;;;;27.60;20.08;;;;;;;-146.27;77.22;81938.25;5053443;28;20033;-66
2023/09/16 01:47:34;;;;;;;28.85;18.77;;;;;;;-146.27;77.26;81934.25;5053228;28;20025;-66
2023/09/16 01:49:59;;;;;;;25.90;18.35;;;;;;;-146.27;78.13;81974.41;5053699;28;20024;-66
2023/09/16 01:52:24;;;;;;;26.00;18.73;;;;;;;-146.27;76.93;81970.41;5052157;28;20530;-65
2023/09/16 01:54:50;;;;;;;25.85;19.67;;;;;;;-146.27;78.05;81958.34;5053210;28;20037;-65
2023/09/16 01:57:15;;;;;;;29.63;18.95;;;;;;;-146.27;76.86;81938.25;5053104;28;20438;-66
2023/09/16 01:59:41;;;;;;;30.52;18.52;;;;;;;-146.27;77.43;81940.25;5052847;28;20716;-65
2023/09/16 02:02:06;;;;;;;29.30;20.10;;;;;;;-146.27;77.19;81990.47;5051566;28;20501;-65
2023/09/16 02:04:31;;;;;;;27.77;20.00;;;;;;;-146.27;77.79;81998.50;5053310;28;20483;-65
2023/09/16 02:06:57;;;;;;;26.42;19.48;;;;;;;-146.27;77.95;82034.66;5052995;28;20111;-67
2023/09/16 02:09:22;;;;;;;26.92;19.23;;;;;;;-146.27;78.30;82044.72;5052484;28;20024;-67
2023/09/16 02:11:48;;;;;;;27.08;19.50;;;;;;;-146.27;78.39;82046.72;5052766;28;20024;-67
2023/09/16 02:14:20;;;;;;;25.05;18.40;;;;;;;-146.27;78.26;82060.78;5052740;28;20021;-67
2023/09/16 02:16:45;;;;;;;29.98;18.42;;;;;;;-146.27;78.74;82080.88;5052860;28;20116;-67
2023/09/16 02:19:11;;;;;;;29.73;19.20;;;;;;;-146.27;78.87;82092.91;5052755;28;20137;-67
2023/09/16 02:21:37;;;;;;;25.98;19.42;;;;;;;-146.27;78.57;82074.84;5052942;28;20050;-68
2023/09/16 02:24:02;;;;;;;22.58;18.67;;;;;;;-146.27;78.83;82102.97;5052856;28;20017;-67
2023/09/16 02:26:28;;;;;;;24.77;18.73;;;;;;;-146.27;78.86;82084.88;5052290;28;20029;-67
2023/09/16 02:28:53;;;;;;;24.60;18.30;;;;;;;-146.27;78.86;82062.78;5052803;28;20108;-67
2023/09/16 02:31:18;;;;;;;25.52;17.75;;;;;;;-146.27;78.79;82066.81;5052797;28;20074;-67
2023/09/16 02:33:44;;;;;;;26.60;19.10;;;;;;;-146.27;79.06;82131.09;5052742;28;20472;-67
2023/09/16 02:36:09;;;;;;;27.65;18.50;;;;;;;-146.27;78.87;82078.84;5052048;28;20040;-68
2023/09/16 02:38:34;;;;;;;29.30;19.60;;;;;;;-146.27;78.96;82123.06;5052453;28;20033;-67
2023/09/16 02:41:04;;;;;;;22.55;17.65;;;;;;;-146.27;78.96;82127.06;5052510;28;20013;-67
2023/09/16 02:43:30;;;;;;;27.80;19.25;;;;;;;-146.27;79.39;82115.00;5051396;28;20028;-68
2023/09/16 02:45:56;;;;;;;25.20;18.95;;;;;;;-146.27;79.43;82111.00;5052229;28;20028;-67
2023/09/16 02:48:21;;;;;;;27.05;18.38;;;;;;;-146.27;79.33;82129.06;5052271;28;20135;-67
2023/09/16 02:50:47;;;;;;;29.50;17.88;;;;;;;-146.27;79.37;82163.22;5052244;28;20111;-67
2023/09/16 02:53:13;;;;;;;26.67;19.17;;;;;;;-146.27;79.17;82147.16;5052511;28;20108;-67
2023/09/16 02:55:38;;;;;;;32.17;19.25;;;;;;;-146.27;79.36;82141.13;5051595;28;20460;-67
2023/09/16 02:58:03;;;;;;;23.63;18.55;;;;;;;-146.27;78.81;82113.00;5052169;28;20108;-67
2023/09/16 03:00:29;;;;;;;24.60;18.45;;;;;;;-146.27;78.70;82038.69;5052054;28;20586;-67
2023/09/16 03:02:56;;;;;;;24.52;17.85;;;;;;;-146.27;79.38;82056.75;5052093;28;20031;-67
2023/09/16 03:05:22;;;;;;;28.45;19.30;;;;;;;-146.27;78.83;82048.72;5050762;28;20511;-67
2023/09/16 03:07:48;;;;;;;26.17;17.63;;;;;;;-146.27;78.52;82038.69;5050570;28;20056;-67
2023/09/16 03:10:14;;;;;;;24.02;17.80;;;;;;;-146.27;78.48;82032.66;5052095;28;20489;-67
2023/09/16 03:12:40;;;;;;;27.08;18.38;;;;;;;-146.27;78.49;82046.72;5051861;28;20025;-66
2023/09/16 03:15:05;;;;;;;25.90;18.05;;;;;;;-146.27;78.52;82040.69;5051719;28;20044;-67
2023/09/16 03:17:31;;;;;;;22.83;16.58;;;;;;;-146.27;78.24;82018.59;5052143;28;20105;-67
2023/09/16 03:19:56;;;;;;;22.17;17.05;;;;;;;-146.27;78.27;82115.00;5051909;28;20021;-67
2023/09/16 03:22:22;;;;;;;22.73;17.27;;;;;;;-146.27;78.19;82028.66;5051797;28;20040;-67
2023/09/16 03:24:48;;;;;;;23.17;17.13;;;;;;;-146.27;78.43;82058.78;5051507;28;20477;-68
2023/09/16 03:27:13;;;;;;;23.45;15.80;;;;;;;-146.27;78.03;82046.72;5051393;28;20052;-68
2023/09/16 03:29:39;;;;;;;21.58;17.38;;;;;;;-146.27;78.13;82072.84;5051969;28;20079;-67
2023/09/16 03:32:04;;;;;;;24.63;18.02;;;;;;;-146.27;78.30;82040.69;5051664;28;20497;-66
2023/09/16 03:34:29;;;;;;;24.52;18.02;;;;;;;-146.27;78.60;82092.91;5051261;28;20112;-68
2023/09/16 03:36:55;;;;;;;23.17;17.85;;;;;;;-146.27;78.71;82034.66;5051454;28;20032;-66
2023/09/16 03:39:20;;;;;;;23.50;17.67;;;;;;;-146.27;78.57;82062.78;5051355;28;20511;-66
2023/09/16 03:41:46;;;;;;;21.85;17.55;;;;;;;-146.27;79.39;82030.66;5051683;28;20032;-67
2023/09/16 03:44:12;;;;;;;23.23;17.35;;;;;;;-146.27;78.78;82092.91;5051224;28;20021;-68
2023/09/16 03:46:39;;;;;;;24.15;17.38;;;;;;;-146.27;78.60;82050.75;5050944;28;20133;-68
2023/09/16 03:49:05;;;;;;;21.48;17.73;;;;;;;-146.27;78.38;82076.84;5051030;28;20020;-67
2023/09/16 03:51:32;;;;;;;24.67;16.45;;;;;;;-146.27;78.19;82074.84;5051172;28;20029;-67
2023/09/16 03:53:58;;;;;;;22.92;16.38;;;;;;;-146.27;78.20;82106.97;5050767;28;20619;-67
2023/09/16 03:56:23;;;;;;;23.40;16.67;;;;;;;-146.27;78.00;82133.09;5050800;28;20029;-68
2023/09/16 03:58:48;;;;;;;23.35;16.38;;;;;;;-146.27;78.15;82102.97;5051083;28;20034;-67
2023/09/16 04:01:14;;;;;;;21.20;16.27;;;;;;;-146.27;78.65;82153.19;5051316;28;20044;-67
2023/09/16 04:03:40;;;;;;;20.98;16.15;;;;;;;-146.27;79.03;82135.09;5050960;28;20032;-67
2023/09/16 04:06:05;;;;;;;22.58;16.88;;;;;;;-146.27;78.87;82100.97;5050509;28;20032;-67
2023/09/16 04:08:31;;;;;;;26.05;18.10;;;;;;;-146.27;79.04;82135.09;5050916;28;20033;-68
2023/09/16 04:10:56;;;;;;;23.13;16.35;;;;;;;-146.27;78.98;82139.13;5050871;28;20028;-67
2023/09/16 04:13:22;;;;;;;23.15;17.23;;;;;;;-146.27;78.60;82155.19;5050726;28;20540;-67
2023/09/16 04:15:48;;;;;;;21.27;16.65;;;;;;;-146.27;78.80;82151.16;5050204;28;20114;-67
2023/09/16 04:18:14;;;;;;;24.55;16.65;;;;;;;-146.27;79.17;82147.16;5050760;28;20025;-67
2023/09/16 04:20:39;;;;;;;29.70;17.10;;;;;;;-146.27;79.54;82173.28;5050378;28;20499;-68
2023/09/16 04:23:04;;;;;;;21.90;16.73;;;;;;;-146.27;78.67;82151.16;5050440;28;20063;-68
2023/09/16 04:25:30;;;;;;;23.13;16.73;;;;;;;-146.27;78.39;82129.06;5049751;28;20024;-66
2023/09/16 04:27:57;;;;;;;20.30;15.30;;;;;;;-146.27;78.41;82149.16;5048827;28;20025;-66
2023/09/16 04:30:22;;;;;;;24.30;16.45;;;;;;;-146.27;78.63;82157.19;5050016;28;20020;-66
2023/09/16 04:32:47;;;;;;;23.80;17.33;;;;;;;-146.27;78.60;82183.31;5050135;28;20029;-68
2023/09/16 04:35:13;;;;;;;22.08;16.00;;;;;;;-146.27;78.26;82171.25;5049223;28;20084;-66
2023/09/16 04:37:38;;;;;;;18.67;15.95;;;;;;;-146.27;78.43;82183.31;5050152;28;20481;-66
2023/09/16 04:40:14;;;;;;;22.33;16.40;;;;;;;-146.27;78.77;82209.44;5050344;28;20377;-65
2023/09/16 04:42:39;;;;;;;20.90;15.52;;;;;;;-146.27;78.82;82215.44;5050295;28;20075;-65
2023/09/16 04:45:06;;;;;;;23.00;16.20;;;;;;;-146.27;78.45;82153.19;5050034;28;20028;-65
2023/09/16 04:47:31;;;;;;;22.65;15.73;;;;;;;-146.27;78.46;82243.56;5049812;28;20036;-65
2023/09/16 04:49:57;;;;;;;21.90;15.90;;;;;;;-146.27;78.35;82209.44;5048620;28;20017;-65
2023/09/16 04:52:25;;;;;;;21.23;16.33;;;;;;;-146.27;79.05;82225.50;5050140;28;20500;-65
2023/09/16 04:54:54;;;;;;;22.63;16.98;;;;;;;-146.27;78.90;82227.50;5049394;28;20021;-66
2023/09/16 04:57:20;;;;;;;23.48;16.17;;;;;;;-146.27;79.55;82169.25;5049625;28;20067;-65
2023/09/16 04:59:46;;;;;;;24.55;17.77;;;;;;;-146.27;79.53;82207.41;5049822;28;20056;-66
2023/09/16 05:02:11;;;;;;;24.60;16.00;;;;;;;-146.27;79.18;82221.47;5048150;28;20056;-65
2023/09/16 05:04:37;;;;;;;24.90;16.25;;;;;;;-146.27;79.33;82209.44;5049430;28;20457;-66
2023/09/16 05:07:04;;;;;;;23.63;15.30;;;;;;;-146.27;79.22;82187.31;5051464;28;20036;-66
2023/09/16 05:09:30;;;;;;;23.75;15.95;;;;;;;-146.27;78.90;82197.38;5054157;28;20040;-66
2023/09/16 05:11:55;;;;;;;20.95;15.60;;;;;;;-146.27;78.90;82243.56;5054114;28;20028;-65
2023/09/16 05:14:20;;;;;;;20.73;15.15;;;;;;;-146.27;78.86;82207.41;5053656;28;20043;-67
2023/09/16 05:16:46;;;;;;;19.85;15.65;;;;;;;-146.27;78.60;82223.47;5053697;28;20041;-66
2023/09/16 05:19:11;;;;;;;20.20;14.90;;;;;;;-146.27;78.95;82271.69;5053540;28;20059;-66
2023/09/16 05:21:36;;;;;;;22.80;15.88;;;;;;;-146.27;79.12;82239.56;5053591;28;20056;-66
2023/09/16 05:24:02;;;;;;;21.55;15.30;;;;;;;-146.27;78.67;82227.50;5053757;28;20029;-66
2023/09/16 05:26:27;;;;;;;20.55;15.30;;;;;;;-146.27;79.01;82243.56;5053617;28;20021;-66
2023/09/16 05:28:52;;;;;;;22.73;15.63;;;;;;;-146.27;78.83;82269.69;5053552;28;20483;-66
2023/09/16 05:31:18;;;;;;;21.70;16.00;;;;;;;-146.27;79.42;82253.63;5053801;28;20104;-66
2023/09/16 05:33:43;;;;;;;20.27;15.50;;;;;;;-146.27;79.02;82279.72;5052545;28;20036;-65
2023/09/16 05:36:08;;;;;;;25.85;17.48;;;;;;;-146.27;79.20;82271.69;5053149;28;20025;-67
2023/09/16 05:38:34;;;;;;;24.70;17.50;;;;;;;-146.27;80.63;82267.69;5053408;28;20488;-67
2023/09/16 05:40:59;;;;;;;21.08;15.52;;;;;;;-146.27;79.37;82257.63;5053204;28;20051;-68
2023/09/16 05:43:25;;;;;;;21.00;15.13;;;;;;;-146.27;79.33;82205.41;5053044;28;20028;-67
2023/09/16 05:45:51;;;;;;;19.17;14.93;;;;;;;-146.27;79.24;82269.69;5052557;28;20025;-67
2023/09/16 05:48:17;;;;;;;23.70;14.90;;;;;;;-146.27;79.25;82239.56;5052902;28;20090;-66
2023/09/16 05:50:43;;;;;;;21.88;15.43;;;;;;;-146.27;79.25;82249.59;5051866;28;20095;-68
2023/09/16 05:53:08;;;;;;;22.00;14.57;;;;;;;-146.27;79.44;82239.56;5052881;28;20381;-68
2023/09/16 05:55:38;;;;;;;17.13;14.65;;;;;;;-146.27;79.81;82241.56;5052871;28;20036;-67
2023/09/16 05:58:06;;;;;;;21.45;15.68;;;;;;;-146.27;80.54;82213.44;5053005;28;20443;-68
2023/09/16 06:00:32;;;;;;;18.10;14.05;;;;;;;-146.27;79.56;82163.22;5052727;28;20538;-66
2023/09/16 06:02:57;;;;;;;18.80;13.75;;;;;;;-146.27;80.15;82183.31;5052611;28;20029;-67
2023/09/16 06:05:22;;;;;;;21.60;15.50;;;;;;;-146.27;79.69;82219.47;5052867;28;20029;-66
2023/09/16 06:07:48;;;;;;;22.20;15.05;;;;;;;-146.27;79.85;82177.28;5052505;28;20424;-68
2023/09/16 06:10:13;;;;;;;22.00;16.27;;;;;;;-146.27;80.09;82207.41;5052551;28;20095;-67
2023/09/16 06:12:38;;;;;;;28.58;15.77;;;;;;;-146.27;80.29;82179.28;5052593;28;20028;-67
2023/09/16 06:15:04;;;;;;;23.10;15.77;;;;;;;-146.27;79.71;82143.13;5051833;28;20029;-67
2023/09/16 06:17:29;;;;;;;19.27;15.25;;;;;;;-146.27;80.54;82163.22;5051729;28;20029;-67
2023/09/16 06:19:56;;;;;;;19.85;14.75;;;;;;;-146.27;79.65;82149.16;5052835;28;20108;-66
2023/09/16 06:22:23;;;;;;;17.55;14.18;;;;;;;-146.27;80.20;82131.09;5052848;28;20037;-67
2023/09/16 06:24:49;;;;;;;19.13;14.20;;;;;;;-146.27;80.13;82115.00;5052357;28;20035;-67
2023/09/16 06:27:14;;;;;;;21.83;15.45;;;;;;;-146.27;80.17;82104.97;5052124;28;20559;-67
2023/09/16 06:29:41;;;;;;;18.80;14.48;;;;;;;-146.27;79.81;82074.84;5051690;28;20109;-68
2023/09/16 06:32:07;;;;;;;20.90;15.00;;;;;;;-146.27;80.29;82054.75;5050742;28;20024;-67
2023/09/16 06:34:33;;;;;;;20.20;14.45;;;;;;;-146.27;79.63;82034.66;5051103;28;20036;-67
2023/09/16 06:36:59;;;;;;;21.17;14.07;;;;;;;-146.27;79.43;82020.59;5051633;28;20029;-67
2023/09/16 06:39:25;;;;;;;19.60;14.63;;;;;;;-146.27;79.25;81994.50;5050560;28;20025;-68
2023/09/16 06:41:50;;;;;;;25.10;14.60;;;;;;;-146.27;79.18;81978.44;5051724;28;20025;-65
2023/09/16 06:44:16;;;;;;;21.65;13.63;;;;;;;-146.27;79.01;81994.50;5051866;28;20029;-67
2023/09/16 06:46:43;;;;;;;21.58;14.77;;;;;;;-146.27;78.82;81988.47;5051843;28;20134;-67
2023/09/16 06:49:09;;;;;;;22.58;15.40;;;;;;;-146.27;78.99;81950.31;5051646;28;20413;-66
2023/09/16 06:51:34;;;;;;;19.08;14.88;;;;;;;-146.27;78.92;81918.16;5051937;28;20025;-65
2023/09/16 06:54:00;;;;;;;23.05;14.90;;;;;;;-146.27;78.63;81876.00;5053145;28;20107;-67
2023/09/16 06:56:25;;;;;;;22.70;14.85;;;;;;;-146.27;78.52;81914.16;5063303;28;20020;-67
2023/09/16 06:58:50;;;;;;;22.15;14.25;;;;;;;-146.27;78.62;81902.09;5051784;28;20146;-66
2023/09/16 07:01:16;;;;;;;24.30;15.50;;;;;;;-146.27;78.71;81894.06;5051676;28;20021;-66
2023/09/16 07:03:41;;;;;;;18.65;13.88;;;;;;;-146.27;78.68;81894.06;5050370;28;20033;-67
2023/09/16 07:06:06;;;;;;;19.90;15.05;;;;;;;-146.27;78.82;81849.88;5051843;28;20035;-65
2023/09/16 07:08:32;;;;;;;21.02;14.65;;;;;;;-146.27;78.41;81843.84;5051471;28;20043;-68
2023/09/16 07:10:57;;;;;;;20.05;15.38;;;;;;;-146.27;78.49;81805.69;5051679;28;20025;-67
2023/09/16 07:13:22;;;;;;;21.65;16.27;;;;;;;-146.27;78.29;81801.69;5051610;28;20064;-67
2023/09/16 07:15:55;;;;;;;22.70;16.88;;;;;;;-146.27;78.51;81777.56;5050698;28;20067;-66
2023/09/16 07:18:20;;;;;;;25.90;16.00;;;;;;;-146.27;78.46;81767.53;5050054;28;20017;-66
2023/09/16 07:20:47;;;;;;;27.98;16.23;;;;;;;-146.27;78.30;81695.22;5051026;28;20016;-66
2023/09/16 07:23:13;;;;;;;27.58;17.00;;;;;;;-146.27;78.06;81709.28;5051517;28;20032;-67
2023/09/16 07:25:38;;;;;;;26.55;16.23;;;;;;;-146.27;77.70;81687.19;5051731;28;20488;-66
2023/09/16 07:28:04;;;;;;;22.42;16.60;;;;;;;-146.27;77.64;81679.16;5051279;28;20039;-67
2023/09/16 07:30:30;;;;;;;20.98;15.60;;;;;;;-146.27;77.65;81663.09;5050875;28;20028;-67
2023/09/16 07:32:56;;;;;;;27.65;17.17;;;;;;;-146.27;77.65;81645.00;5051246;28;20052;-68
2023/09/16 07:35:21;;;;;;;24.17;16.02;;;;;;;-146.27;77.69;81641.00;5050420;28;20035;-67
2023/09/16 07:37:46;;;;;;;23.20;15.38;;;;;;;-146.27;77.50;81604.84;5050964;28;20428;-67
2023/09/16 07:40:12;;;;;;;20.92;14.98;;;;;;;-146.27;77.47;81588.78;5051086;28;20045;-67
2023/09/16 07:42:38;;;;;;;25.50;18.23;;;;;;;-146.27;77.33;81600.84;5050994;28;20039;-65
2023/09/16 07:45:03;;;;;;;24.17;17.45;;;;;;;-146.27;77.26;81604.84;5049809;28;20025;-71
2023/09/16 07:47:29;;;;;;;26.20;17.42;;;;;;;-146.27;77.51;81520.50;5050308;28;20656;-70
2023/09/16 07:49:54;;;;;;;21.63;16.67;;;;;;;-146.27;77.50;81536.56;5051096;28;20021;-68
2023/09/16 07:52:19;;;;;;;23.77;16.38;;;;;;;-146.27;77.24;81466.28;5050804;28;20028;-69
2023/09/16 07:54:45;;;;;;;25.17;17.00;;;;;;;-146.27;76.95;81512.47;5050797;28;20032;-68
2023/09/16 07:57:12;;;;;;;24.50;16.48;;;;;;;-146.27;76.91;81474.31;5050542;28;20473;-70
2023/09/16 07:59:37;;;;;;;26.70;16.80;;;;;;;-146.27;77.05;81438.16;5050728;28;20028;-70
2023/09/16 08:02:03;;;;;;;23.30;16.65;;;;;;;-146.27;77.04;81418.06;5050808;28;20032;-70
2023/09/16 08:04:28;;;;;;;26.85;17.20;;;;;;;-146.27;76.89;81430.13;5050830;28;20086;-70
2023/09/16 08:06:56;;;;;;;22.38;17.42;;;;;;;-146.27;77.07;81408.03;5050685;28;20021;-70
2023/09/16 08:09:21;;;;;;;25.38;17.02;;;;;;;-146.27;76.71;81371.88;5050574;28;20226;-69
2023/09/16 08:11:46;;;;;;;22.17;16.08;;;;;;;-146.27;76.44;81371.88;5050965;28;20464;-71
2023/09/16 08:14:12;;;;;;;24.75;15.95;;;;;;;-146.27;76.96;81349.78;5050303;28;20028;-69
2023/09/16 08:16:38;;;;;;;22.67;16.30;;;;;;;-146.27;76.75;81317.66;5050615;28;20070;-70
2023/09/16 08:19:03;;;;;;;22.65;15.38;;;;;;;-146.27;76.63;81271.47;5050275;28;20074;-70
2023/09/16 08:21:29;;;;;;;21.88;15.90;;;;;;;-146.27;76.31;81243.34;5050382;28;20476;-70
2023/09/16 08:23:54;;;;;;;28.38;16.98;;;;;;;-146.27;75.74;81215.22;5049513;28;20042;-67
2023/09/16 08:26:19;;;;;;;23.45;16.13;;;;;;;-146.27;75.52;81171.06;5049879;28;20021;-69
2023/09/16 08:28:45;;;;;;;19.25;14.57;;;;;;;-146.27;75.56;81161.00;5053291;28;20511;-70
2023/09/16 08:31:10;;;;;;;20.25;13.23;;;;;;;-146.27;75.18;81088.72;5049937;28;20115;-69
2023/09/16 08:33:35;;;;;;;19.83;14.27;;;;;;;-146.27;75.06;81046.53;5049480;28;20025;-69
2023/09/16 08:36:01;;;;;;;21.10;15.07;;;;;;;-146.27;73.84;81032.50;5063897;28;20480;-70
2023/09/16 08:38:26;;;;;;;18.42;14.10;;;;;;;-146.27;73.90;80970.25;5055494;28;20439;-68
2023/09/16 08:41:04;;;;;;;19.92;13.73;;;;;;;-146.27;73.78;80914.00;5049905;28;20115;-68
2023/09/16 08:43:37;;;;;;;20.13;15.27;;;;;;;-146.27;73.75;80899.97;5050392;28;20021;-69
2023/09/16 08:46:08;;;;;;;18.45;13.93;;;;;;;-146.27;73.71;80879.88;5049850;28;20044;-69
2023/09/16 08:48:37;;;;;;;20.15;13.75;;;;;;;-146.27;73.97;80914.00;5049354;28;20362;-70
2023/09/16 08:51:05;;;;;;;26.05;15.48;;;;;;;-146.27;74.41;80893.94;5049912;28;20024;-71
2023/09/16 08:53:34;;;;;;;19.33;12.75;;;;;;;-146.27;73.62;80777.47;5049835;28;20028;-69
2023/09/16 08:56:00;;;;;;;20.42;14.32;;;;;;;-146.27;73.04;80809.59;5049593;28;20029;-70
2023/09/16 08:58:26;;;;;;;18.92;13.35;;;;;;;-146.27;73.17;80753.38;5049676;28;20035;-70
2023/09/16 09:00:52;;;;;;;23.98;14.85;;;;;;;-146.27;73.52;80729.28;5049928;28;20583;-69
2023/09/16 09:03:17;;;;;;;20.83;13.63;;;;;;;-146.27;73.89;80749.34;5049883;28;20036;-69
2023/09/16 09:05:44;;;;;;;17.15;11.88;;;;;;;-146.27;73.64;80624.88;5049507;28;20036;-68
2023/09/16 09:08:11;;;;;;;18.42;13.07;;;;;;;-146.27;73.70;80624.88;5049658;28;20024;-67
2023/09/16 09:10:40;;;;;;;16.83;12.05;;;;;;;-146.27;71.33;80584.69;5049883;28;20032;-67
2023/09/16 09:13:14;;;;;;;18.50;12.82;;;;;;;-146.27;71.91;80604.78;5049569;28;20043;-68
2023/09/16 09:15:41;;;;;;;16.88;11.85;;;;;;;-146.27;70.43;80562.63;5048835;28;20500;-68
2023/09/16 09:18:08;;;;;;;14.82;10.98;;;;;;;-146.27;70.90;80536.50;5049204;28;20031;-68
2023/09/16 09:20:34;;;;;;;19.92;13.10;;;;;;;-146.27;69.31;80454.19;5049127;28;20025;-68
2023/09/16 09:22:59;;;;;;;17.13;11.40;;;;;;;-146.27;70.08;80494.34;5049824;28;20107;-68
2023/09/16 09:25:29;;;;;;;16.20;12.32;;;;;;;-146.27;70.34;80377.91;5049656;28;20146;-68
2023/09/16 09:27:57;;;;;;;21.15;12.48;;;;;;;-146.27;69.60;80359.81;5049177;28;20086;-68
2023/09/16 09:30:27;;;;;;;14.95;11.02;;;;;;;-146.27;69.29;80301.59;5048878;28;20028;-69
2023/09/16 09:32:56;;;;;;;17.48;12.02;;;;;;;-146.27;68.14;80299.59;5051391;28;20508;-69
2023/09/16 09:35:23;;;;;;;12.80;10.25;;;;;;;-146.27;69.33;80231.31;5049557;28;20109;-68
2023/09/16 09:37:49;;;;;;;18.35;11.35;;;;;;;-146.27;67.97;80179.13;5049426;28;20053;-69
2023/09/16 09:40:15;;;;;;;18.88;10.32;;;;;;;-146.27;69.12;80088.78;5049220;28;20346;-68
2023/09/16 09:42:57;;;;;;;16.70;11.25;;;;;;;-146.27;67.06;80038.59;5048329;28;20040;-67
2023/09/16 09:45:24;;;;;;;15.00;10.82;;;;;;;-146.27;66.72;79982.38;5049112;28;20021;-68
2023/09/16 09:47:51;;;;;;;17.75;10.77;;;;;;;-146.27;66.38;79865.94;5049338;28;20495;-68
2023/09/16 09:50:19;;;;;;;17.30;10.63;;;;;;;-146.27;63.48;79789.66;5049246;28;20024;-68
2023/09/16 09:52:49;;;;;;;15.52;10.10;;;;;;;-146.27;64.73;79725.41;5050573;28;20612;-68
2023/09/16 09:55:18;;;;;;;17.15;11.02;;;;;;;-146.27;64.87;79639.09;5051602;28;20025;-67
2023/09/16 09:57:47;;;;;;;14.27;9.80;;;;;;;-146.27;66.00;79568.84;5053045;28;20029;-68
2023/09/16 10:00:17;;;;;;;12.77;9.40;;;;;;;-146.27;63.89;79564.81;5052884;28;20033;-68
2023/09/16 10:02:43;;;;;;;12.50;9.65;;;;;;;-146.27;62.06;79484.53;5052932;28;20052;-68
2023/09/16 10:05:16;;;;;;;11.52;8.75;;;;;;;-146.27;57.85;79394.19;5052829;28;20052;-67
2023/09/16 10:07:43;;;;;;;;;;;;;;;-146.27;61.80;79390.19;5053103;28;20094;-67
2023/09/16 10:10:22;;;;;;;11.93;9.50;;;;;;;-146.27;60.25;79331.97;5052676;28;19916;-67
2023/09/16 10:12:54;;;;;;;13.02;9.15;;;;;;;-146.27;62.35;79432.34;5050796;28;20051;-67
2023/09/16 10:15:34;;;;;;;10.95;7.38;;;;;;;-146.27;57.63;79155.34;5052551;28;20469;-68
2023/09/16 10:18:00;;;;;;;11.48;7.07;;;;;;;-146.27;57.25;79147.31;5051393;28;20102;-69
2023/09/16 10:20:36;;;;;;;12.25;6.47;;;;;;;-146.27;55.61;79061.00;5051432;28;20025;-69
2023/09/16 10:23:02;;;;;;;13.93;7.20;;;;;;;-146.27;55.05;79002.78;5052477;28;20083;-69
2023/09/16 10:25:28;;;;;;;11.10;7.57;;;;;;;-146.27;54.08;79018.84;5052389;28;20029;-69
2023/09/16 10:27:58;;;;;;;10.65;6.75;;;;;;;-146.27;57.85;78924.50;5052077;28;20055;-69
2023/09/16 10:30:25;;;;;;;9.27;6.55;;;;;;;-146.27;55.78;78878.34;5051660;28;20025;-69
2023/09/16 10:32:51;;;;;;;11.75;8.02;;;;;;;-146.27;56.32;78800.06;5051661;28;20398;-71
2023/09/16 10:35:18;;;;;;;9.95;6.15;;;;;;;-146.27;53.34;78597.38;5052288;28;20032;-68
2023/09/16 10:37:44;;;;;;;10.88;7.25;;;;;;;-146.27;52.39;78615.44;5051970;28;20021;-68
2023/09/16 10:40:10;;;;;;;12.43;8.05;;;;;;;-146.27;53.92;78761.94;5052147;28;20032;-67
2023/09/16 10:42:37;;;;;;;6.50;5.13;;;;;;;-146.27;51.88;78615.44;5052195;28;20029;-67
2023/09/16 10:45:03;;;;;;;10.52;6.80;;;;;;;-146.27;51.88;78484.97;5051286;28;20036;-66
2023/09/16 10:47:30;;;;;;;9.05;6.18;;;;;;;-146.27;50.47;78400.69;5050607;28;20033;-66
2023/09/16 10:49:56;;;;;;;8.80;6.88;;;;;;;-146.27;49.35;78412.75;5052197;28;20500;-66
2023/09/16 10:52:29;;;;;;;9.85;6.63;;;;;;;-146.27;51.52;78480.97;5052172;28;20033;-66
2023/09/16 10:55:07;;;;;;;9.80;7.07;;;;;;;-146.27;49.35;78306.38;5051913;28;20136;-68
2023/09/16 10:58:03;;;;;;;10.63;7.10;;;;;;;-146.27;49.92;78244.16;5051959;28;20036;-65
2023/09/16 11:00:37;;;;;;;9.85;6.35;;;;;;;-146.27;47.39;78196.00;5044074;28;20048;-67